sensor_id;sensor_type;location;lat;lon;timestamp;P1;durP1;ratioP1;P2;durP2;ratioP2
13866;SDS011;7003;46.982;15.248;2022-08-03T00:02:19;3.30;;;3.10;;
13866;SDS011;7003;46.982;15.248;2022-08-03T00:04:50;3.40;;;2.85;;
13866;SDS011;7003;46.982;15.248;2022-08-03T00:07:21;4.22;;;3.47;;
13866;SDS011;7003;46.982;15.248;2022-08-03T00:09:50;3.00;;;2.70;;
13866;SDS011;7003;46.982;15.248;2022-08-03T00:12:20;3.15;;;2.85;;
13866;SDS011;7003;46.982;15.248;2022-08-03T00:14:48;3.60;;;3.25;;
13866;SDS011;7003;46.982;15.248;2022-08-03T00:17:18;9.68;;;3.50;;
13866;SDS011;7003;46.982;15.248;2022-08-03T00:19:45;3.55;;;2.95;;
13866;SDS011;7003;46.982;15.248;2022-08-03T00:22:14;3.80;;;2.80;;
13866;SDS011;7003;46.982;15.248;2022-08-03T00:24:42;2.95;;;2.72;;
13866;SDS011;7003;46.982;15.248;2022-08-03T00:27:12;3.08;;;2.83;;
13866;SDS011;7003;46.982;15.248;2022-08-03T00:29:40;3.10;;;2.75;;
13866;SDS011;7003;46.982;15.248;2022-08-03T00:32:12;3.72;;;3.10;;
13866;SDS011;7003;46.982;15.248;2022-08-03T00:34:43;4.05;;;3.78;;
13866;SDS011;7003;46.982;15.248;2022-08-03T00:37:10;2.22;;;2.10;;
13866;SDS011;7003;46.982;15.248;2022-08-03T00:39:44;3.05;;;2.85;;
13866;SDS011;7003;46.982;15.248;2022-08-03T00:42:12;5.30;;;3.45;;
13866;SDS011;7003;46.982;15.248;2022-08-03T00:44:40;3.25;;;2.97;;
13866;SDS011;7003;46.982;15.248;2022-08-03T00:47:07;4.78;;;3.47;;
13866;SDS011;7003;46.982;15.248;2022-08-03T00:49:35;3.38;;;2.95;;
13866;SDS011;7003;46.982;15.248;2022-08-03T00:52:03;3.25;;;3.05;;
13866;SDS011;7003;46.982;15.248;2022-08-03T00:54:30;3.85;;;3.42;;
13866;SDS011;7003;46.982;15.248;2022-08-03T00:57:00;3.72;;;3.25;;
13866;SDS011;7003;46.982;15.248;2022-08-03T00:59:28;8.48;;;3.67;;
13866;SDS011;7003;46.982;15.248;2022-08-03T01:01:58;3.75;;;3.35;;
13866;SDS011;7003;46.982;15.248;2022-08-03T01:04:25;3.88;;;3.20;;
13866;SDS011;7003;46.982;15.248;2022-08-03T01:06:55;8.02;;;3.13;;
13866;SDS011;7003;46.982;15.248;2022-08-03T01:09:31;4.60;;;3.85;;
13866;SDS011;7003;46.982;15.248;2022-08-03T01:12:09;3.58;;;3.22;;
13866;SDS011;7003;46.982;15.248;2022-08-03T01:14:48;3.17;;;2.75;;
13866;SDS011;7003;46.982;15.248;2022-08-03T01:17:22;3.45;;;3.15;;
13866;SDS011;7003;46.982;15.248;2022-08-03T01:20:00;3.08;;;2.83;;
13866;SDS011;7003;46.982;15.248;2022-08-03T01:22:36;3.40;;;3.10;;
13866;SDS011;7003;46.982;15.248;2022-08-03T01:25:20;3.42;;;3.17;;
13866;SDS011;7003;46.982;15.248;2022-08-03T01:28:01;3.92;;;3.63;;
13866;SDS011;7003;46.982;15.248;2022-08-03T01:30:42;3.90;;;3.53;;
13866;SDS011;7003;46.982;15.248;2022-08-03T01:33:12;5.15;;;3.22;;
13866;SDS011;7003;46.982;15.248;2022-08-03T01:35:46;11.25;;;3.30;;
13866;SDS011;7003;46.982;15.248;2022-08-03T01:38:22;5.95;;;3.83;;
13866;SDS011;7003;46.982;15.248;2022-08-03T01:40:56;5.47;;;3.42;;
13866;SDS011;7003;46.982;15.248;2022-08-03T01:43:27;3.97;;;3.67;;
13866;SDS011;7003;46.982;15.248;2022-08-03T01:45:57;4.30;;;3.03;;
13866;SDS011;7003;46.982;15.248;2022-08-03T01:48:28;4.10;;;3.45;;
13866;SDS011;7003;46.982;15.248;2022-08-03T01:51:00;3.83;;;3.53;;
13866;SDS011;7003;46.982;15.248;2022-08-03T01:53:30;4.78;;;2.88;;
13866;SDS011;7003;46.982;15.248;2022-08-03T01:55:59;8.57;;;4.03;;
13866;SDS011;7003;46.982;15.248;2022-08-03T01:58:29;2.67;;;2.47;;
13866;SDS011;7003;46.982;15.248;2022-08-03T02:01:01;3.95;;;3.65;;
13866;SDS011;7003;46.982;15.248;2022-08-03T02:03:33;4.35;;;3.95;;
13866;SDS011;7003;46.982;15.248;2022-08-03T02:06:04;8.40;;;3.00;;
13866;SDS011;7003;46.982;15.248;2022-08-03T02:08:35;3.67;;;3.38;;
13866;SDS011;7003;46.982;15.248;2022-08-03T02:11:07;3.85;;;3.45;;
13866;SDS011;7003;46.982;15.248;2022-08-03T02:13:38;4.63;;;3.78;;
13866;SDS011;7003;46.982;15.248;2022-08-03T02:16:08;5.80;;;4.07;;
13866;SDS011;7003;46.982;15.248;2022-08-03T02:18:40;4.20;;;2.33;;
13866;SDS011;7003;46.982;15.248;2022-08-03T02:21:08;11.00;;;3.67;;
13866;SDS011;7003;46.982;15.248;2022-08-03T02:23:37;3.97;;;3.67;;
13866;SDS011;7003;46.982;15.248;2022-08-03T02:26:09;3.33;;;3.03;;
13866;SDS011;7003;46.982;15.248;2022-08-03T02:28:42;5.45;;;3.05;;
13866;SDS011;7003;46.982;15.248;2022-08-03T02:31:17;4.07;;;3.70;;
13866;SDS011;7003;46.982;15.248;2022-08-03T02:34:00;4.60;;;3.83;;
13866;SDS011;7003;46.982;15.248;2022-08-03T02:36:32;4.07;;;3.67;;
13866;SDS011;7003;46.982;15.248;2022-08-03T02:39:03;7.10;;;3.97;;
13866;SDS011;7003;46.982;15.248;2022-08-03T02:41:36;4.85;;;3.53;;
13866;SDS011;7003;46.982;15.248;2022-08-03T02:44:10;3.50;;;3.20;;
13866;SDS011;7003;46.982;15.248;2022-08-03T02:46:41;3.75;;;3.45;;
13866;SDS011;7003;46.982;15.248;2022-08-03T02:49:15;4.65;;;4.10;;
13866;SDS011;7003;46.982;15.248;2022-08-03T02:51:47;3.67;;;3.38;;
13866;SDS011;7003;46.982;15.248;2022-08-03T02:54:17;5.72;;;4.03;;
13866;SDS011;7003;46.982;15.248;2022-08-03T02:56:47;3.78;;;3.47;;
13866;SDS011;7003;46.982;15.248;2022-08-03T02:59:15;4.22;;;3.60;;
13866;SDS011;7003;46.982;15.248;2022-08-03T03:01:48;4.47;;;3.40;;
13866;SDS011;7003;46.982;15.248;2022-08-03T03:04:18;7.50;;;4.40;;
13866;SDS011;7003;46.982;15.248;2022-08-03T03:06:45;3.78;;;3.47;;
13866;SDS011;7003;46.982;15.248;2022-08-03T03:09:15;5.57;;;3.53;;
13866;SDS011;7003;46.982;15.248;2022-08-03T03:11:43;11.27;;;3.53;;
13866;SDS011;7003;46.982;15.248;2022-08-03T03:14:13;4.57;;;3.80;;
13866;SDS011;7003;46.982;15.248;2022-08-03T03:16:44;12.93;;;4.72;;
13866;SDS011;7003;46.982;15.248;2022-08-03T03:19:14;4.10;;;3.80;;
13866;SDS011;7003;46.982;15.248;2022-08-03T03:21:45;9.93;;;3.60;;
13866;SDS011;7003;46.982;15.248;2022-08-03T03:24:13;3.58;;;3.28;;
13866;SDS011;7003;46.982;15.248;2022-08-03T03:26:45;3.22;;;2.95;;
13866;SDS011;7003;46.982;15.248;2022-08-03T03:29:13;5.88;;;5.38;;
13866;SDS011;7003;46.982;15.248;2022-08-03T03:31:43;4.00;;;3.70;;
13866;SDS011;7003;46.982;15.248;2022-08-03T03:34:11;9.52;;;4.35;;
13866;SDS011;7003;46.982;15.248;2022-08-03T03:36:43;10.18;;;3.88;;
13866;SDS011;7003;46.982;15.248;2022-08-03T03:39:13;3.15;;;2.58;;
13866;SDS011;7003;46.982;15.248;2022-08-03T03:41:40;4.20;;;3.00;;
13866;SDS011;7003;46.982;15.248;2022-08-03T03:44:09;6.22;;;4.05;;
13866;SDS011;7003;46.982;15.248;2022-08-03T03:46:39;4.28;;;3.83;;
13866;SDS011;7003;46.982;15.248;2022-08-03T03:49:09;6.00;;;5.43;;
13866;SDS011;7003;46.982;15.248;2022-08-03T03:51:39;4.25;;;3.85;;
13866;SDS011;7003;46.982;15.248;2022-08-03T03:54:09;4.90;;;4.43;;
13866;SDS011;7003;46.982;15.248;2022-08-03T03:56:41;5.35;;;4.78;;
13866;SDS011;7003;46.982;15.248;2022-08-03T03:59:12;4.82;;;4.43;;
13866;SDS011;7003;46.982;15.248;2022-08-03T04:01:49;4.95;;;3.80;;
13866;SDS011;7003;46.982;15.248;2022-08-03T04:04:23;12.63;;;4.25;;
13866;SDS011;7003;46.982;15.248;2022-08-03T04:07:10;7.93;;;4.00;;
13866;SDS011;7003;46.982;15.248;2022-08-03T04:09:58;4.55;;;3.95;;
13866;SDS011;7003;46.982;15.248;2022-08-03T04:12:47;3.88;;;3.30;;
13866;SDS011;7003;46.982;15.248;2022-08-03T04:15:25;3.42;;;3.10;;
13866;SDS011;7003;46.982;15.248;2022-08-03T04:18:00;4.40;;;4.00;;
13866;SDS011;7003;46.982;15.248;2022-08-03T04:20:35;4.38;;;3.53;;
13866;SDS011;7003;46.982;15.248;2022-08-03T04:23:13;3.90;;;3.60;;
13866;SDS011;7003;46.982;15.248;2022-08-03T04:25:54;3.25;;;3.00;;
13866;SDS011;7003;46.982;15.248;2022-08-03T04:28:28;10.82;;;3.95;;
13866;SDS011;7003;46.982;15.248;2022-08-03T04:31:03;7.53;;;3.45;;
13866;SDS011;7003;46.982;15.248;2022-08-03T04:33:33;4.07;;;3.67;;
13866;SDS011;7003;46.982;15.248;2022-08-03T04:36:04;3.53;;;3.30;;
13866;SDS011;7003;46.982;15.248;2022-08-03T04:38:35;3.60;;;3.30;;
13866;SDS011;7003;46.982;15.248;2022-08-03T04:41:09;6.10;;;3.17;;
13866;SDS011;7003;46.982;15.248;2022-08-03T04:43:41;6.25;;;3.78;;
13866;SDS011;7003;46.982;15.248;2022-08-03T04:46:12;5.30;;;3.95;;
13866;SDS011;7003;46.982;15.248;2022-08-03T04:48:41;4.47;;;3.47;;
13866;SDS011;7003;46.982;15.248;2022-08-03T04:51:11;3.22;;;2.90;;
13866;SDS011;7003;46.982;15.248;2022-08-03T04:53:41;3.40;;;3.10;;
13866;SDS011;7003;46.982;15.248;2022-08-03T04:56:13;3.78;;;3.47;;
13866;SDS011;7003;46.982;15.248;2022-08-03T04:58:44;4.13;;;3.38;;
13866;SDS011;7003;46.982;15.248;2022-08-03T05:01:13;6.55;;;4.20;;
13866;SDS011;7003;46.982;15.248;2022-08-03T05:03:42;4.25;;;3.38;;
13866;SDS011;7003;46.982;15.248;2022-08-03T05:06:13;4.20;;;3.83;;
13866;SDS011;7003;46.982;15.248;2022-08-03T05:08:41;5.03;;;4.55;;
13866;SDS011;7003;46.982;15.248;2022-08-03T05:11:09;4.50;;;3.88;;
13866;SDS011;7003;46.982;15.248;2022-08-03T05:13:39;5.00;;;4.60;;
13866;SDS011;7003;46.982;15.248;2022-08-03T05:16:07;5.18;;;3.97;;
13866;SDS011;7003;46.982;15.248;2022-08-03T05:18:39;2.92;;;2.70;;
13866;SDS011;7003;46.982;15.248;2022-08-03T05:21:10;3.22;;;2.80;;
13866;SDS011;7003;46.982;15.248;2022-08-03T05:23:39;3.88;;;3.47;;
13866;SDS011;7003;46.982;15.248;2022-08-03T05:26:07;2.97;;;2.72;;
13866;SDS011;7003;46.982;15.248;2022-08-03T05:28:38;2.95;;;2.75;;
13866;SDS011;7003;46.982;15.248;2022-08-03T05:31:07;4.40;;;3.72;;
13866;SDS011;7003;46.982;15.248;2022-08-03T05:33:35;3.92;;;3.63;;
13866;SDS011;7003;46.982;15.248;2022-08-03T05:36:06;4.93;;;3.95;;
13866;SDS011;7003;46.982;15.248;2022-08-03T05:38:35;6.28;;;4.05;;
13866;SDS011;7003;46.982;15.248;2022-08-03T05:41:07;4.85;;;4.43;;
13866;SDS011;7003;46.982;15.248;2022-08-03T05:43:41;4.03;;;3.72;;
13866;SDS011;7003;46.982;15.248;2022-08-03T05:46:16;3.95;;;3.63;;
13866;SDS011;7003;46.982;15.248;2022-08-03T05:48:52;3.25;;;3.05;;
13866;SDS011;7003;46.982;15.248;2022-08-03T05:51:26;4.55;;;2.90;;
13866;SDS011;7003;46.982;15.248;2022-08-03T05:53:57;3.65;;;3.33;;
13866;SDS011;7003;46.982;15.248;2022-08-03T05:56:32;3.10;;;2.80;;
13866;SDS011;7003;46.982;15.248;2022-08-03T05:59:05;3.33;;;3.03;;
13866;SDS011;7003;46.982;15.248;2022-08-03T06:01:35;2.72;;;2.47;;
13866;SDS011;7003;46.982;15.248;2022-08-03T06:04:05;3.05;;;2.72;;
13866;SDS011;7003;46.982;15.248;2022-08-03T06:06:36;2.95;;;2.75;;
13866;SDS011;7003;46.982;15.248;2022-08-03T06:09:04;4.07;;;3.60;;
13866;SDS011;7003;46.982;15.248;2022-08-03T06:11:31;2.60;;;2.40;;
13866;SDS011;7003;46.982;15.248;2022-08-03T06:13:59;4.40;;;3.25;;
13866;SDS011;7003;46.982;15.248;2022-08-03T06:16:31;3.63;;;2.47;;
13866;SDS011;7003;46.982;15.248;2022-08-03T06:19:00;3.88;;;2.72;;
13866;SDS011;7003;46.982;15.248;2022-08-03T06:21:31;4.35;;;3.10;;
13866;SDS011;7003;46.982;15.248;2022-08-03T06:24:01;2.33;;;2.15;;
13866;SDS011;7003;46.982;15.248;2022-08-03T06:26:31;4.00;;;2.50;;
13866;SDS011;7003;46.982;15.248;2022-08-03T06:29:01;4.35;;;2.67;;
13866;SDS011;7003;46.982;15.248;2022-08-03T06:31:29;2.83;;;2.63;;
13866;SDS011;7003;46.982;15.248;2022-08-03T06:33:58;2.47;;;1.77;;
13866;SDS011;7003;46.982;15.248;2022-08-03T06:36:27;2.25;;;2.05;;
13866;SDS011;7003;46.982;15.248;2022-08-03T06:38:56;3.63;;;2.95;;
13866;SDS011;7003;46.982;15.248;2022-08-03T06:41:26;6.45;;;3.25;;
13866;SDS011;7003;46.982;15.248;2022-08-03T06:43:54;2.72;;;2.53;;
13866;SDS011;7003;46.982;15.248;2022-08-03T06:46:22;3.00;;;2.80;;
13866;SDS011;7003;46.982;15.248;2022-08-03T06:48:53;2.88;;;2.67;;
13866;SDS011;7003;46.982;15.248;2022-08-03T06:51:22;3.03;;;2.58;;
13866;SDS011;7003;46.982;15.248;2022-08-03T06:53:50;2.72;;;2.00;;
13866;SDS011;7003;46.982;15.248;2022-08-03T06:56:20;2.83;;;2.63;;
13866;SDS011;7003;46.982;15.248;2022-08-03T06:58:49;2.90;;;2.42;;
13866;SDS011;7003;46.982;15.248;2022-08-03T07:01:17;2.50;;;2.30;;
13866;SDS011;7003;46.982;15.248;2022-08-03T07:03:45;3.13;;;2.83;;
13866;SDS011;7003;46.982;15.248;2022-08-03T07:06:13;13.32;;;3.10;;
13866;SDS011;7003;46.982;15.248;2022-08-03T07:08:42;2.67;;;2.47;;
13866;SDS011;7003;46.982;15.248;2022-08-03T07:11:10;3.78;;;2.65;;
13866;SDS011;7003;46.982;15.248;2022-08-03T07:13:37;4.45;;;4.05;;
13866;SDS011;7003;46.982;15.248;2022-08-03T07:16:13;3.94;;;3.37;;
13866;SDS011;7003;46.982;15.248;2022-08-03T07:18:41;3.75;;;3.38;;
13866;SDS011;7003;46.982;15.248;2022-08-03T07:21:09;4.10;;;3.67;;
13866;SDS011;7003;46.982;15.248;2022-08-03T07:23:37;4.72;;;3.88;;
13866;SDS011;7003;46.982;15.248;2022-08-03T07:26:10;3.60;;;3.30;;
13866;SDS011;7003;46.982;15.248;2022-08-03T07:28:40;5.78;;;3.10;;
13866;SDS011;7003;46.982;15.248;2022-08-03T07:31:11;3.92;;;3.70;;
13866;SDS011;7003;46.982;15.248;2022-08-03T07:33:41;12.93;;;3.05;;
13866;SDS011;7003;46.982;15.248;2022-08-03T07:36:08;3.30;;;3.10;;
13866;SDS011;7003;46.982;15.248;2022-08-03T07:38:36;4.22;;;3.22;;
13866;SDS011;7003;46.982;15.248;2022-08-03T07:41:06;4.13;;;3.75;;
13866;SDS011;7003;46.982;15.248;2022-08-03T07:43:35;4.47;;;3.42;;
13866;SDS011;7003;46.982;15.248;2022-08-03T07:46:02;3.22;;;3.03;;
13866;SDS011;7003;46.982;15.248;2022-08-03T07:48:30;3.92;;;3.63;;
13866;SDS011;7003;46.982;15.248;2022-08-03T07:51:00;3.75;;;3.45;;
13866;SDS011;7003;46.982;15.248;2022-08-03T07:53:32;4.30;;;3.90;;
13866;SDS011;7003;46.982;15.248;2022-08-03T07:56:02;3.63;;;3.35;;
13866;SDS011;7003;46.982;15.248;2022-08-03T07:58:35;3.88;;;3.53;;
13866;SDS011;7003;46.982;15.248;2022-08-03T08:01:03;3.05;;;2.75;;
13866;SDS011;7003;46.982;15.248;2022-08-03T08:03:34;3.63;;;2.97;;
13866;SDS011;7003;46.982;15.248;2022-08-03T08:06:03;4.22;;;3.30;;
13866;SDS011;7003;46.982;15.248;2022-08-03T08:08:34;5.45;;;4.57;;
13866;SDS011;7003;46.982;15.248;2022-08-03T08:11:04;4.07;;;3.35;;
13866;SDS011;7003;46.982;15.248;2022-08-03T08:13:33;3.72;;;3.05;;
13866;SDS011;7003;46.982;15.248;2022-08-03T08:16:03;2.83;;;2.60;;
13866;SDS011;7003;46.982;15.248;2022-08-03T08:18:33;9.18;;;4.18;;
13866;SDS011;7003;46.982;15.248;2022-08-03T08:21:03;4.90;;;3.70;;
13866;SDS011;7003;46.982;15.248;2022-08-03T08:23:33;4.22;;;2.97;;
13866;SDS011;7003;46.982;15.248;2022-08-03T08:26:03;3.67;;;3.22;;
13866;SDS011;7003;46.982;15.248;2022-08-03T08:28:31;4.20;;;3.28;;
13866;SDS011;7003;46.982;15.248;2022-08-03T08:31:00;3.30;;;3.00;;
13866;SDS011;7003;46.982;15.248;2022-08-03T08:33:32;4.35;;;3.05;;
13866;SDS011;7003;46.982;15.248;2022-08-03T08:36:01;4.05;;;3.17;;
13866;SDS011;7003;46.982;15.248;2022-08-03T08:38:31;16.48;;;3.22;;
13866;SDS011;7003;46.982;15.248;2022-08-03T08:41:00;3.10;;;2.67;;
13866;SDS011;7003;46.982;15.248;2022-08-03T08:43:28;3.72;;;3.38;;
13866;SDS011;7003;46.982;15.248;2022-08-03T08:45:57;3.08;;;2.78;;
13866;SDS011;7003;46.982;15.248;2022-08-03T08:48:27;3.47;;;3.22;;
13866;SDS011;7003;46.982;15.248;2022-08-03T08:50:56;3.33;;;3.03;;
13866;SDS011;7003;46.982;15.248;2022-08-03T08:53:29;5.00;;;3.53;;
13866;SDS011;7003;46.982;15.248;2022-08-03T08:56:04;3.90;;;3.35;;
13866;SDS011;7003;46.982;15.248;2022-08-03T08:58:37;2.58;;;2.38;;
13866;SDS011;7003;46.982;15.248;2022-08-03T09:01:10;2.40;;;2.20;;
13866;SDS011;7003;46.982;15.248;2022-08-03T09:03:42;3.22;;;2.92;;
13866;SDS011;7003;46.982;15.248;2022-08-03T09:06:12;5.50;;;4.10;;
13866;SDS011;7003;46.982;15.248;2022-08-03T09:08:40;2.97;;;2.78;;
13866;SDS011;7003;46.982;15.248;2022-08-03T09:11:08;8.35;;;3.20;;
13866;SDS011;7003;46.982;15.248;2022-08-03T09:13:35;2.90;;;2.70;;
13866;SDS011;7003;46.982;15.248;2022-08-03T09:16:10;3.20;;;2.90;;
13866;SDS011;7003;46.982;15.248;2022-08-03T09:18:40;2.60;;;2.40;;
13866;SDS011;7003;46.982;15.248;2022-08-03T09:21:15;3.03;;;2.83;;
13866;SDS011;7003;46.982;15.248;2022-08-03T09:23:45;2.55;;;2.35;;
13866;SDS011;7003;46.982;15.248;2022-08-03T09:26:19;3.85;;;2.22;;
13866;SDS011;7003;46.982;15.248;2022-08-03T09:28:53;4.00;;;2.80;;
13866;SDS011;7003;46.982;15.248;2022-08-03T09:31:29;2.53;;;2.25;;
13866;SDS011;7003;46.982;15.248;2022-08-03T09:34:01;1.83;;;1.73;;
13866;SDS011;7003;46.982;15.248;2022-08-03T09:36:36;2.45;;;2.28;;
13866;SDS011;7003;46.982;15.248;2022-08-03T09:39:08;3.28;;;2.55;;
13866;SDS011;7003;46.982;15.248;2022-08-03T09:41:40;2.78;;;2.55;;
13866;SDS011;7003;46.982;15.248;2022-08-03T09:44:08;2.50;;;2.28;;
13866;SDS011;7003;46.982;15.248;2022-08-03T09:46:48;2.45;;;2.28;;
13866;SDS011;7003;46.982;15.248;2022-08-03T09:49:21;2.10;;;1.85;;
13866;SDS011;7003;46.982;15.248;2022-08-03T09:51:49;2.10;;;1.90;;
13866;SDS011;7003;46.982;15.248;2022-08-03T09:54:24;2.65;;;2.45;;
13866;SDS011;7003;46.982;15.248;2022-08-03T09:56:53;5.78;;;2.55;;
13866;SDS011;7003;46.982;15.248;2022-08-03T09:59:24;2.00;;;1.88;;
13866;SDS011;7003;46.982;15.248;2022-08-03T10:01:56;1.98;;;1.88;;
13866;SDS011;7003;46.982;15.248;2022-08-03T10:04:29;1.98;;;1.88;;
13866;SDS011;7003;46.982;15.248;2022-08-03T10:07:03;3.45;;;1.80;;
13866;SDS011;7003;46.982;15.248;2022-08-03T10:09:32;8.70;;;2.03;;
13866;SDS011;7003;46.982;15.248;2022-08-03T10:12:09;1.92;;;1.83;;
13866;SDS011;7003;46.982;15.248;2022-08-03T10:14:39;2.15;;;1.98;;
13866;SDS011;7003;46.982;15.248;2022-08-03T10:17:09;3.55;;;1.85;;
13866;SDS011;7003;46.982;15.248;2022-08-03T10:19:39;1.95;;;1.20;;
13866;SDS011;7003;46.982;15.248;2022-08-03T10:22:10;1.92;;;1.77;;
13866;SDS011;7003;46.982;15.248;2022-08-03T10:24:45;1.65;;;1.55;;
13866;SDS011;7003;46.982;15.248;2022-08-03T10:27:19;2.05;;;1.55;;
13866;SDS011;7003;46.982;15.248;2022-08-03T10:29:51;2.65;;;2.00;;
13866;SDS011;7003;46.982;15.248;2022-08-03T10:32:26;3.80;;;1.73;;
13866;SDS011;7003;46.982;15.248;2022-08-03T10:34:59;1.73;;;1.63;;
13866;SDS011;7003;46.982;15.248;2022-08-03T10:37:36;1.95;;;1.73;;
13866;SDS011;7003;46.982;15.248;2022-08-03T10:40:09;3.10;;;2.08;;
13866;SDS011;7003;46.982;15.248;2022-08-03T10:42:42;2.00;;;1.77;;
13866;SDS011;7003;46.982;15.248;2022-08-03T10:45:12;1.45;;;1.35;;
13866;SDS011;7003;46.982;15.248;2022-08-03T10:47:45;1.45;;;1.35;;
13866;SDS011;7003;46.982;15.248;2022-08-03T10:50:18;1.55;;;1.30;;
13866;SDS011;7003;46.982;15.248;2022-08-03T10:52:55;4.63;;;1.90;;
13866;SDS011;7003;46.982;15.248;2022-08-03T10:55:31;2.20;;;1.30;;
13866;SDS011;7003;46.982;15.248;2022-08-03T11:01:49;4.05;;;1.90;;
13866;SDS011;7003;46.982;15.248;2022-08-03T11:04:37;1.52;;;1.42;;
13866;SDS011;7003;46.982;15.248;2022-08-03T11:07:21;1.67;;;1.58;;
13866;SDS011;7003;46.982;15.248;2022-08-03T11:09:53;1.05;;;1.05;;
13866;SDS011;7003;46.982;15.248;2022-08-03T11:12:22;1.30;;;1.20;;
13866;SDS011;7003;46.982;15.248;2022-08-03T11:14:50;1.50;;;1.40;;
13866;SDS011;7003;46.982;15.248;2022-08-03T11:17:20;1.42;;;1.33;;
13866;SDS011;7003;46.982;15.248;2022-08-03T11:19:52;1.35;;;1.25;;
13866;SDS011;7003;46.982;15.248;2022-08-03T11:22:24;1.60;;;1.50;;
13866;SDS011;7003;46.982;15.248;2022-08-03T11:24:57;1.60;;;1.50;;
13866;SDS011;7003;46.982;15.248;2022-08-03T11:27:29;1.85;;;1.70;;
13866;SDS011;7003;46.982;15.248;2022-08-03T11:30:00;1.45;;;1.35;;
13866;SDS011;7003;46.982;15.248;2022-08-03T11:35:28;2.22;;;1.65;;
13866;SDS011;7003;46.982;15.248;2022-08-03T11:38:05;1.85;;;1.70;;
13866;SDS011;7003;46.982;15.248;2022-08-03T11:40:36;1.63;;;1.52;;
13866;SDS011;7003;46.982;15.248;2022-08-03T11:43:05;2.22;;;2.03;;
13866;SDS011;7003;46.982;15.248;2022-08-03T11:45:37;1.80;;;1.70;;
13866;SDS011;7003;46.982;15.248;2022-08-03T11:48:13;1.60;;;1.50;;
13866;SDS011;7003;46.982;15.248;2022-08-03T11:50:44;2.25;;;2.13;;
13866;SDS011;7003;46.982;15.248;2022-08-03T11:53:15;1.52;;;1.38;;
13866;SDS011;7003;46.982;15.248;2022-08-03T11:55:47;1.50;;;1.40;;
13866;SDS011;7003;46.982;15.248;2022-08-03T11:58:16;1.83;;;1.73;;
13866;SDS011;7003;46.982;15.248;2022-08-03T12:00:45;2.00;;;1.90;;
13866;SDS011;7003;46.982;15.248;2022-08-03T12:03:31;2.00;;;1.75;;
13866;SDS011;7003;46.982;15.248;2022-08-03T12:06:01;3.40;;;2.05;;
13866;SDS011;7003;46.982;15.248;2022-08-03T12:08:33;1.98;;;1.80;;
13866;SDS011;7003;46.982;15.248;2022-08-03T12:11:04;1.55;;;1.45;;
13866;SDS011;7003;46.982;15.248;2022-08-03T12:13:37;2.53;;;2.33;;
13866;SDS011;7003;46.982;15.248;2022-08-03T12:16:06;1.75;;;1.65;;
13866;SDS011;7003;46.982;15.248;2022-08-03T12:18:34;1.70;;;1.60;;
13866;SDS011;7003;46.982;15.248;2022-08-03T12:21:03;3.35;;;2.00;;
13866;SDS011;7003;46.982;15.248;2022-08-03T12:23:37;2.00;;;1.90;;
13866;SDS011;7003;46.982;15.248;2022-08-03T12:26:06;1.83;;;1.73;;
13866;SDS011;7003;46.982;15.248;2022-08-03T12:28:38;1.73;;;1.60;;
13866;SDS011;7003;46.982;15.248;2022-08-03T12:31:13;1.63;;;1.40;;
13866;SDS011;7003;46.982;15.248;2022-08-03T12:33:54;4.45;;;2.00;;
13866;SDS011;7003;46.982;15.248;2022-08-03T12:36:22;2.05;;;1.73;;
13866;SDS011;7003;46.982;15.248;2022-08-03T12:38:54;1.30;;;1.20;;
13866;SDS011;7003;46.982;15.248;2022-08-03T12:41:26;2.33;;;2.15;;
13866;SDS011;7003;46.982;15.248;2022-08-03T12:43:58;4.68;;;1.83;;
13866;SDS011;7003;46.982;15.248;2022-08-03T12:46:31;1.60;;;1.50;;
13866;SDS011;7003;46.982;15.248;2022-08-03T12:49:01;2.75;;;2.15;;
13866;SDS011;7003;46.982;15.248;2022-08-03T12:51:31;1.73;;;1.63;;
13866;SDS011;7003;46.982;15.248;2022-08-03T12:54:05;2.60;;;2.25;;
13866;SDS011;7003;46.982;15.248;2022-08-03T12:56:35;1.50;;;1.40;;
13866;SDS011;7003;46.982;15.248;2022-08-03T12:59:23;1.73;;;1.63;;
13866;SDS011;7003;46.982;15.248;2022-08-03T13:01:51;1.92;;;1.73;;
13866;SDS011;7003;46.982;15.248;2022-08-03T13:04:24;1.45;;;1.35;;
13866;SDS011;7003;46.982;15.248;2022-08-03T13:06:56;2.92;;;1.48;;
13866;SDS011;7003;46.982;15.248;2022-08-03T13:09:26;1.98;;;1.85;;
13866;SDS011;7003;46.982;15.248;2022-08-03T13:12:03;1.95;;;1.80;;
13866;SDS011;7003;46.982;15.248;2022-08-03T13:14:32;1.70;;;1.58;;
13866;SDS011;7003;46.982;15.248;2022-08-03T13:16:59;1.50;;;1.40;;
13866;SDS011;7003;46.982;15.248;2022-08-03T13:19:27;6.97;;;2.20;;
13866;SDS011;7003;46.982;15.248;2022-08-03T13:21:55;1.65;;;1.55;;
13866;SDS011;7003;46.982;15.248;2022-08-03T13:24:22;1.58;;;1.48;;
13866;SDS011;7003;46.982;15.248;2022-08-03T13:26:57;1.50;;;1.42;;
13866;SDS011;7003;46.982;15.248;2022-08-03T13:29:27;1.55;;;1.45;;
13866;SDS011;7003;46.982;15.248;2022-08-03T13:31:54;1.40;;;1.30;;
13866;SDS011;7003;46.982;15.248;2022-08-03T13:34:22;1.67;;;1.58;;
13866;SDS011;7003;46.982;15.248;2022-08-03T13:36:52;3.83;;;1.50;;
13866;SDS011;7003;46.982;15.248;2022-08-03T13:39:20;1.75;;;1.65;;
13866;SDS011;7003;46.982;15.248;2022-08-03T13:41:48;1.42;;;1.33;;
13866;SDS011;7003;46.982;15.248;2022-08-03T13:44:21;1.55;;;1.45;;
13866;SDS011;7003;46.982;15.248;2022-08-03T13:46:51;1.85;;;1.70;;
13866;SDS011;7003;46.982;15.248;2022-08-03T13:49:22;1.02;;;1.02;;
13866;SDS011;7003;46.982;15.248;2022-08-03T13:51:49;2.03;;;1.58;;
13866;SDS011;7003;46.982;15.248;2022-08-03T13:54:17;1.85;;;1.75;;
13866;SDS011;7003;46.982;15.248;2022-08-03T13:56:47;1.90;;;1.80;;
13866;SDS011;7003;46.982;15.248;2022-08-03T13:59:21;1.52;;;1.42;;
13866;SDS011;7003;46.982;15.248;2022-08-03T14:02:03;1.17;;;1.13;;
13866;SDS011;7003;46.982;15.248;2022-08-03T14:04:30;2.28;;;2.03;;
13866;SDS011;7003;46.982;15.248;2022-08-03T14:09:51;2.05;;;1.88;;
13866;SDS011;7003;46.982;15.248;2022-08-03T14:12:19;1.67;;;1.58;;
13866;SDS011;7003;46.982;15.248;2022-08-03T14:14:47;1.85;;;1.75;;
13866;SDS011;7003;46.982;15.248;2022-08-03T14:17:18;3.42;;;2.25;;
13866;SDS011;7003;46.982;15.248;2022-08-03T14:19:47;1.60;;;1.40;;
13866;SDS011;7003;46.982;15.248;2022-08-03T14:22:14;2.22;;;1.45;;
13866;SDS011;7003;46.982;15.248;2022-08-03T14:24:42;1.90;;;1.80;;
13866;SDS011;7003;46.982;15.248;2022-08-03T14:27:10;2.53;;;1.70;;
13866;SDS011;7003;46.982;15.248;2022-08-03T14:29:39;1.30;;;1.20;;
13866;SDS011;7003;46.982;15.248;2022-08-03T14:32:07;1.92;;;1.83;;
13866;SDS011;7003;46.982;15.248;2022-08-03T14:34:36;1.70;;;1.60;;
13866;SDS011;7003;46.982;15.248;2022-08-03T14:37:04;1.67;;;1.58;;
13866;SDS011;7003;46.982;15.248;2022-08-03T14:39:34;1.38;;;1.27;;
13866;SDS011;7003;46.982;15.248;2022-08-03T14:42:01;1.55;;;1.40;;
13866;SDS011;7003;46.982;15.248;2022-08-03T14:44:29;1.50;;;1.40;;
13866;SDS011;7003;46.982;15.248;2022-08-03T14:46:59;2.03;;;1.80;;
13866;SDS011;7003;46.982;15.248;2022-08-03T14:49:29;2.35;;;2.15;;
13866;SDS011;7003;46.982;15.248;2022-08-03T14:51:58;1.52;;;1.40;;
13866;SDS011;7003;46.982;15.248;2022-08-03T14:54:26;1.80;;;1.70;;
13866;SDS011;7003;46.982;15.248;2022-08-03T14:57:00;1.73;;;1.60;;
13866;SDS011;7003;46.982;15.248;2022-08-03T14:59:31;2.85;;;1.30;;
13866;SDS011;7003;46.982;15.248;2022-08-03T15:01:58;1.50;;;1.40;;
13866;SDS011;7003;46.982;15.248;2022-08-03T15:04:26;2.58;;;1.80;;
13866;SDS011;7003;46.982;15.248;2022-08-03T15:06:54;2.20;;;2.00;;
13866;SDS011;7003;46.982;15.248;2022-08-03T15:09:23;1.83;;;1.73;;
13866;SDS011;7003;46.982;15.248;2022-08-03T15:11:53;1.70;;;1.60;;
13866;SDS011;7003;46.982;15.248;2022-08-03T15:14:21;4.65;;;1.90;;
13866;SDS011;7003;46.982;15.248;2022-08-03T15:16:49;1.35;;;1.25;;
13866;SDS011;7003;46.982;15.248;2022-08-03T15:19:17;2.47;;;2.00;;
13866;SDS011;7003;46.982;15.248;2022-08-03T15:21:44;1.52;;;1.42;;